AirNav   Everest Fuels
 
 467 users online  

CD14 J & S Airport
Bennett, Colorado, USA

GOING TO BENNETT?


FAA INFORMATION EFFECTIVE 26 JANUARY 2023

Location

FAA Identifier: CD14
Lat/Long: 39-49-43.9440N 104-26-13.8560W
39-49.732400N 104-26.230933W
39.8288733,-104.4371822
(estimated)
Elevation: 5320 ft. / 1622 m (estimated)
Variation: 11E (1985)
From city: 4 miles N of BENNETT, CO
Time zone: UTC -7 (UTC -6 during Daylight Saving Time)
Zip code: 80102

Airport Operations

Airport use: Private use. Permission required prior to landing
Activation date: 01/1988
Control tower: no
ARTCC: DENVER CENTER
FSS: DENVER FLIGHT SERVICE STATION
Attendance: UNATNDD
Segmented circle: no

Airport Communications

WX AWOS-3 at CFO (5 nm SW): 119.025 (303-261-9104)
WX ASOS at DEN (11 nm W): PHONE 303-342-1920

Nearby radio navigation aids

VOR radial/distance  VOR name  Freq  Var
DVVr107/9.5MILE HIGH VORTAC114.7008E
DENr077/10.3DENVER VOR/DME117.9008E
FQFr035/11.9FALCON VORTAC116.3011E
BJCr088/32.7JEFFCO VOR/DME115.4011E

Airport Services

Runway Information

Runway 17/35

Dimensions: 2600 x 60 ft. / 792 x 18 m
Surface: dirt
RUNWAY 17  RUNWAY 35
Traffic pattern: leftleft

Airport Ownership and Management from official FAA records

Ownership: Privately-owned
Owner: JOYCE POWELL
7455 CONVERSE RD
BENNETT, CO 80102
Phone 303-644-5028
Manager: GERALD SCHROEDER
3851 IMBODEN RD.
WATKINS, CO 80137
Phone 303-261-9386

Airport Operational Statistics

Aircraft based on the field: 1
Single engine airplanes: 1
    

Additional Remarks

FOR CD CTC DENVER APCH AT 303-342-1916.

Instrument Procedures

There are no published instrument procedures at CD14.

Some nearby airports with instrument procedures:

KCFO - Colorado Air and Space Port Airport (5 nm SW)
KDEN - Denver International Airport (11 nm W)
KBKF - Buckley Space Force Base (16 nm SW)
KAPA - Centennial Airport (25 nm SW)
KEIK - Erie Municipal Airport (30 nm W)
 
Loc | Ops | Rwys | IFR | FBO | Links
Com | Nav | Svcs | Stats | Notes

AirBoss

 
Aerial photo
No photo
 
Sectional chart

 
Airport distance calculator
Flying to J & S Airport? Find the distance to fly.

From to CD14

Sunrise and sunset
Times for 04-Feb-2023
 Local
(UTC-7)
 Zulu
(UTC)
Morning civil twilight06:3613:36
Sunrise07:0414:04
Sunset17:2000:20
Evening civil twilight17:4800:48

Current date and time
Zulu (UTC)  04-Feb-2023 10:11:49
Local (UTC-7)  04-Feb-2023 03:11:49
 
METAR
KCFO 
5nm SW 
040955Z AUTO 22012KT 10SM CLR 04/M11 A3003 RMK AO2 T00411113
KDEN 
10nm W 
040953Z 23007KT 10SM BKN220 03/M09 A3002 RMK AO2 SLP158 T00281094
KBKF 
16nm SW 
040958Z 20006KT 10SM FEW130 BKN220 03/M13 A3002 RMK AO2A SLP144 T00281127
TAF
KDEN 
10nm W 
040534Z 0406/0512 21011KT P6SM SCT100 BKN200 FM041600 25009KT P6SM FEW100 BKN200 FM050200 20010KT P6SM FEW100 BKN200
KBKF 
16nm SW 
040100Z 0401/0507 VRB06KT 9999 SKC 510013 QNH3006INS BECMG 0415/0416 VRB06KT 9999 FEW150 FEW210 SCT280 530054 QNH3007INS TX04/0422Z TNM02/0502Z
NOTAMs
Click for the latest NOTAMs
NOTAMs are issued by the DoD/FAA and will open in a separate window not controlled by AirNav.

 

 
 

Would you like to see your business listed on this page?

 If your business provides an interesting product or service to pilots, flight crews, aircraft, or users of the J & S Airport, you should consider listing it here.  To start the listing process, click on the button below
 
Add a business
 

Other Pages about J & S Airport

Update a link
 
Copyright © AirNav, LLC. All rights reserved. Privacy Policy  Contact